Detall de PIREP

Printer-friendly versionPDF version

[2014/07/14 10:12:00]
Flight IATA:CT3121
Pilot Number:042
Company ICAO:CAT
Aircraft Type:F100/A
PAX:48
Aircraft Registration:PFJ
Departing Airport: LEVC
Destination Airport: LEPA
Alternate Airport:LEBL
Online: VATSIM
Route:ORVUS M871 GODOX
Flight Level:F140
No Slew and time accel
No pause
Crash detect
Detect pilot in Cockpit between each 30 and 45 minutes
10:12 Zero fuel Weight: 81825 Lbs, Fuel Weight: 22689 Lbs
10:12 VATSIM:LEVC 140930Z VRB04KT CAVOK 28/17 Q1016 NOSIG
10:12 VATSIM:LEPA 140930Z 12001KT 9999 FEW022 28/17 Q1016 NOSIG
10:19 Parking Brakes off
10:23 Take-off
10:23 Take off Weight: 104044 Lbs
10:23 Wind: 072º @ 005 Knots Heading: 114º
10:23 POS N39º 29´ 16´´ W000º 28´ 41´´
10:23 Gear Up: 181 Knots
10:23 Flaps:2 at 181 Knots
10:23 Flaps:1 at 183 Knots
10:23 Flaps:0 at 211 Knots
10:29 TOC
10:29 Fuel Weight: 21296 Lb
10:38 Wind:084º@018 Knots Heading: 086º Ground Speed: 347 Knots Altitude 13999 ft
10:41 TOD
10:41 Fuel Weight: 20203 Lb
10:48 Flaps:1 at 218 Knots
10:52 Flaps:2 at 182 Knots
10:52 Gear Down: 177 Knots
10:52 Flaps:3 at 178 Knots
10:53 Wind:203º@009 Knots Heading: 058º Ground Speed: 182 Knots Altitude 2139 ft
10:55 TouchDown:Rate -63 ft/min Speed: 130 Knots
10:55 VATSIM:LEPA 141000Z 22009KT 160V280 9999 FEW024 29/17 Q1016 NOSIG
10:55 Land
10:55 Wind:208º@009 Knots
10:55 Heading: 076º
10:55 Flight Duration: 00:32
10:55 Landing Weight: 101355 Lbs
10:55 POS N39º 33´ 25´´ E002º 43´ 54´´
10:58 Parking brakes on
10:58 Block to Block Duration: 00:39
10:58 Final Fuel: 19376 Lbls
10:58 Spent Fuel: 3313 Lbls
10:58 Flight Length: 151 NM
10:58 TOD Land Length: 58 NM

Exportar CSV

Powered by Drupal - Modified by Danger4k